Terminal Aerodrome Forecast
Issued by NWS Buffalo, NY

Home | Current Version | Previous Version | Text Only | Print | Product List | Glossary On
Versions: 1 2 3 4 5 6 7 8 9 10 11 12 13 14 15 16 17 18 19 20 21 22 23 24 25 26 27 28 29 30
452
FTUS41 KBUF 260313 AAA
TAFROC
TAF AMD
KROC 260313Z 2603/2624 23005KT P6SM FEW060 BKN080
     FM261200 22006KT P6SM VCSH BKN070
     FM261400 24010G18KT P6SM VCSH OVC060=

USA.gov is the U.S. government's official web portal to all federal, state and local government web resources and services.